sensor_id;sensor_type;location;lat;lon;timestamp;temperature;humidity
68943;DHT22;60852;52.190;4.422;2022-12-18T00:01:43;-0.42;81.23
68943;DHT22;60852;52.190;4.422;2022-12-18T00:04:20;-0.45;81.31
68943;DHT22;60852;52.190;4.422;2022-12-18T00:06:46;-0.41;81.32
68943;DHT22;60852;52.190;4.422;2022-12-18T00:09:11;-0.36;81.38
68943;DHT22;60852;52.190;4.422;2022-12-18T00:11:36;-0.28;81.13
68943;DHT22;60852;52.190;4.422;2022-12-18T00:14:02;-0.28;81.22
68943;DHT22;60852;52.190;4.422;2022-12-18T00:16:29;-0.33;81.20
68943;DHT22;60852;52.190;4.422;2022-12-18T00:18:56;-0.36;81.26
68943;DHT22;60852;52.190;4.422;2022-12-18T00:21:27;-0.38;81.22
68943;DHT22;60852;52.190;4.422;2022-12-18T00:23:52;-0.36;81.21
68943;DHT22;60852;52.190;4.422;2022-12-18T00:26:27;-0.39;81.43
68943;DHT22;60852;52.190;4.422;2022-12-18T00:28:54;-0.46;81.45
68943;DHT22;60852;52.190;4.422;2022-12-18T00:31:23;-0.46;81.65
68943;DHT22;60852;52.190;4.422;2022-12-18T00:33:49;-0.48;81.86
68943;DHT22;60852;52.190;4.422;2022-12-18T00:36:18;-0.45;81.74
68943;DHT22;60852;52.190;4.422;2022-12-18T00:38:45;-0.49;81.81
68943;DHT22;60852;52.190;4.422;2022-12-18T00:41:13;-0.62;81.92
68943;DHT22;60852;52.190;4.422;2022-12-18T00:43:39;-0.69;82.31
68943;DHT22;60852;52.190;4.422;2022-12-18T00:46:05;-0.63;82.29
68943;DHT22;60852;52.190;4.422;2022-12-18T00:48:31;-0.66;82.37
68943;DHT22;60852;52.190;4.422;2022-12-18T00:50:57;-0.66;82.33
68943;DHT22;60852;52.190;4.422;2022-12-18T00:53:22;-0.62;82.42
68943;DHT22;60852;52.190;4.422;2022-12-18T00:55:47;-0.60;82.29
68943;DHT22;60852;52.190;4.422;2022-12-18T00:58:16;-0.65;82.38
68943;DHT22;60852;52.190;4.422;2022-12-18T01:00:43;-0.60;82.55
68943;DHT22;60852;52.190;4.422;2022-12-18T01:03:10;-0.59;82.37
68943;DHT22;60852;52.190;4.422;2022-12-18T01:05:39;-0.62;82.29
68943;DHT22;60852;52.190;4.422;2022-12-18T01:08:05;-0.73;82.40
68943;DHT22;60852;52.190;4.422;2022-12-18T01:10:30;-0.80;82.56
68943;DHT22;60852;52.190;4.422;2022-12-18T01:12:56;-0.74;82.54
68943;DHT22;60852;52.190;4.422;2022-12-18T01:15:21;-0.76;82.46
68943;DHT22;60852;52.190;4.422;2022-12-18T01:17:46;-0.79;82.46
68943;DHT22;60852;52.190;4.422;2022-12-18T01:20:12;-0.83;82.30
68943;DHT22;60852;52.190;4.422;2022-12-18T01:22:38;-0.87;82.39
68943;DHT22;60852;52.190;4.422;2022-12-18T01:25:05;-0.84;82.41
68943;DHT22;60852;52.190;4.422;2022-12-18T01:27:33;-0.87;82.51
68943;DHT22;60852;52.190;4.422;2022-12-18T01:29:58;-0.80;82.63
68943;DHT22;60852;52.190;4.422;2022-12-18T01:32:23;-0.76;82.56
68943;DHT22;60852;52.190;4.422;2022-12-18T01:34:49;-0.68;82.54
68943;DHT22;60852;52.190;4.422;2022-12-18T01:37:14;-0.60;82.40
68943;DHT22;60852;52.190;4.422;2022-12-18T01:39:40;-0.72;82.21
68943;DHT22;60852;52.190;4.422;2022-12-18T01:42:12;-0.73;82.31
68943;DHT22;60852;52.190;4.422;2022-12-18T01:47:43;-0.68;82.36
68943;DHT22;60852;52.190;4.422;2022-12-18T01:50:27;-0.63;82.18
68943;DHT22;60852;52.190;4.422;2022-12-18T01:52:58;-0.68;82.08
68943;DHT22;60852;52.190;4.422;2022-12-18T01:55:29;-0.70;81.84
68943;DHT22;60852;52.190;4.422;2022-12-18T01:57:58;-0.80;82.05
68943;DHT22;60852;52.190;4.422;2022-12-18T02:00:26;-0.83;82.14
68943;DHT22;60852;52.190;4.422;2022-12-18T02:02:53;-0.84;82.39
68943;DHT22;60852;52.190;4.422;2022-12-18T02:05:47;-0.90;82.32
68943;DHT22;60852;52.190;4.422;2022-12-18T02:08:33;-0.89;82.20
68943;DHT22;60852;52.190;4.422;2022-12-18T02:28:16;-1.00;82.54
68943;DHT22;60852;52.190;4.422;2022-12-18T02:30:49;-1.07;82.67
68943;DHT22;60852;52.190;4.422;2022-12-18T02:33:19;-0.97;82.69
68943;DHT22;60852;52.190;4.422;2022-12-18T02:35:48;-0.97;82.52
68943;DHT22;60852;52.190;4.422;2022-12-18T02:38:16;-0.94;82.45
68943;DHT22;60852;52.190;4.422;2022-12-18T02:40:42;-0.93;82.54
68943;DHT22;60852;52.190;4.422;2022-12-18T02:43:14;-0.81;82.53
68943;DHT22;60852;52.190;4.422;2022-12-18T02:45:56;-0.84;81.97
68943;DHT22;60852;52.190;4.422;2022-12-18T02:48:29;-0.84;82.10
68943;DHT22;60852;52.190;4.422;2022-12-18T02:51:18;-0.81;82.37
68943;DHT22;60852;52.190;4.422;2022-12-18T02:53:57;-0.83;82.15
68943;DHT22;60852;52.190;4.422;2022-12-18T02:56:32;-0.80;81.98
68943;DHT22;60852;52.190;4.422;2022-12-18T03:04:13;-0.87;81.72
68943;DHT22;60852;52.190;4.422;2022-12-18T03:06:44;-0.90;81.67
68943;DHT22;60852;52.190;4.422;2022-12-18T03:09:35;-0.89;81.69
68943;DHT22;60852;52.190;4.422;2022-12-18T03:15:21;-0.89;81.32
68943;DHT22;60852;52.190;4.422;2022-12-18T03:17:57;-0.84;81.36
68943;DHT22;60852;52.190;4.422;2022-12-18T03:20:27;-0.79;81.32
68943;DHT22;60852;52.190;4.422;2022-12-18T03:23:04;-0.83;81.17
68943;DHT22;60852;52.190;4.422;2022-12-18T03:25:36;-0.83;81.18
68943;DHT22;60852;52.190;4.422;2022-12-18T03:28:09;-0.96;80.64
68943;DHT22;60852;52.190;4.422;2022-12-18T03:30:40;-1.14;80.91
68943;DHT22;60852;52.190;4.422;2022-12-18T03:33:24;-1.17;81.30
68943;DHT22;60852;52.190;4.422;2022-12-18T03:35:50;-1.17;81.57
68943;DHT22;60852;52.190;4.422;2022-12-18T03:38:17;-1.10;81.74
68943;DHT22;60852;52.190;4.422;2022-12-18T03:43:43;-1.07;81.03
68943;DHT22;60852;52.190;4.422;2022-12-18T03:46:26;-1.07;80.56
68943;DHT22;60852;52.190;4.422;2022-12-18T03:48:59;-1.18;80.35
68943;DHT22;60852;52.190;4.422;2022-12-18T03:54:03;-1.34;80.89
68943;DHT22;60852;52.190;4.422;2022-12-18T03:56:35;-1.34;80.98
68943;DHT22;60852;52.190;4.422;2022-12-18T03:59:05;-1.28;81.09
68943;DHT22;60852;52.190;4.422;2022-12-18T04:01:35;-1.22;81.06
68943;DHT22;60852;52.190;4.422;2022-12-18T04:04:04;-1.28;80.53
68943;DHT22;60852;52.190;4.422;2022-12-18T04:06:32;-1.41;80.51
68943;DHT22;60852;52.190;4.422;2022-12-18T04:09:01;-1.45;80.71
68943;DHT22;60852;52.190;4.422;2022-12-18T04:11:26;-1.49;80.94
68943;DHT22;60852;52.190;4.422;2022-12-18T04:13:57;-1.49;80.94
68943;DHT22;60852;52.190;4.422;2022-12-18T04:16:24;-1.45;81.02
68943;DHT22;60852;52.190;4.422;2022-12-18T04:18:49;-1.49;80.94
68943;DHT22;60852;52.190;4.422;2022-12-18T04:21:15;-1.52;80.98
68943;DHT22;60852;52.190;4.422;2022-12-18T04:23:40;-1.55;81.05
68943;DHT22;60852;52.190;4.422;2022-12-18T04:26:06;-1.52;81.00
68943;DHT22;60852;52.190;4.422;2022-12-18T04:28:31;-1.59;80.91
68943;DHT22;60852;52.190;4.422;2022-12-18T04:30:57;-1.63;80.93
68943;DHT22;60852;52.190;4.422;2022-12-18T04:33:22;-1.63;81.06
68943;DHT22;60852;52.190;4.422;2022-12-18T04:35:48;-1.63;80.90
68943;DHT22;60852;52.190;4.422;2022-12-18T04:38:13;-1.61;81.07
68943;DHT22;60852;52.190;4.422;2022-12-18T04:40:39;-1.62;80.74
68943;DHT22;60852;52.190;4.422;2022-12-18T04:43:05;-1.63;80.72
68943;DHT22;60852;52.190;4.422;2022-12-18T04:45:31;-1.69;80.38
68943;DHT22;60852;52.190;4.422;2022-12-18T04:48:02;-1.78;80.51
68943;DHT22;60852;52.190;4.422;2022-12-18T04:50:28;-1.76;80.66
68943;DHT22;60852;52.190;4.422;2022-12-18T04:52:54;-1.79;80.43
68943;DHT22;60852;52.190;4.422;2022-12-18T04:55:20;-1.80;80.40
68943;DHT22;60852;52.190;4.422;2022-12-18T04:57:45;-1.76;80.34
68943;DHT22;60852;52.190;4.422;2022-12-18T05:00:11;-1.73;80.24
68943;DHT22;60852;52.190;4.422;2022-12-18T05:02:37;-1.76;80.06
68943;DHT22;60852;52.190;4.422;2022-12-18T05:05:02;-1.79;80.05
68943;DHT22;60852;52.190;4.422;2022-12-18T05:07:28;-1.86;79.97
68943;DHT22;60852;52.190;4.422;2022-12-18T05:09:53;-1.86;80.17
68943;DHT22;60852;52.190;4.422;2022-12-18T05:12:19;-1.82;80.33
68943;DHT22;60852;52.190;4.422;2022-12-18T05:14:44;-1.80;80.02
68943;DHT22;60852;52.190;4.422;2022-12-18T05:17:09;-1.86;79.88
68943;DHT22;60852;52.190;4.422;2022-12-18T05:19:38;-1.86;79.75
68943;DHT22;60852;52.190;4.422;2022-12-18T05:22:04;-1.87;79.87
68943;DHT22;60852;52.190;4.422;2022-12-18T05:24:32;-1.96;79.77
68943;DHT22;60852;52.190;4.422;2022-12-18T05:26:57;-1.96;79.90
68943;DHT22;60852;52.190;4.422;2022-12-18T05:29:23;-1.99;80.05
68943;DHT22;60852;52.190;4.422;2022-12-18T05:31:48;-1.90;79.91
68943;DHT22;60852;52.190;4.422;2022-12-18T05:34:14;-1.86;79.76
68943;DHT22;60852;52.190;4.422;2022-12-18T05:36:39;-1.85;79.59
68943;DHT22;60852;52.190;4.422;2022-12-18T05:39:05;-1.83;79.57
68943;DHT22;60852;52.190;4.422;2022-12-18T05:41:31;-1.83;79.38
68943;DHT22;60852;52.190;4.422;2022-12-18T05:43:57;-1.78;79.18
68943;DHT22;60852;52.190;4.422;2022-12-18T05:46:23;-1.78;78.97
68943;DHT22;60852;52.190;4.422;2022-12-18T05:48:50;-1.79;79.17
68943;DHT22;60852;52.190;4.422;2022-12-18T05:51:18;-1.73;78.87
68943;DHT22;60852;52.190;4.422;2022-12-18T05:53:45;-1.75;78.85
68943;DHT22;60852;52.190;4.422;2022-12-18T05:56:13;-1.72;78.84
68943;DHT22;60852;52.190;4.422;2022-12-18T05:58:40;-1.69;78.63
68943;DHT22;60852;52.190;4.422;2022-12-18T06:01:10;-1.68;78.54
68943;DHT22;60852;52.190;4.422;2022-12-18T06:03:36;-1.72;78.04
68943;DHT22;60852;52.190;4.422;2022-12-18T06:06:01;-1.75;77.89
68943;DHT22;60852;52.190;4.422;2022-12-18T06:08:27;-1.80;77.84
68943;DHT22;60852;52.190;4.422;2022-12-18T06:10:52;-1.89;77.68
68943;DHT22;60852;52.190;4.422;2022-12-18T06:13:19;-1.89;77.91
68943;DHT22;60852;52.190;4.422;2022-12-18T06:15:45;-1.87;77.82
68943;DHT22;60852;52.190;4.422;2022-12-18T06:18:10;-1.90;77.70
68943;DHT22;60852;52.190;4.422;2022-12-18T06:20:36;-1.89;77.87
68943;DHT22;60852;52.190;4.422;2022-12-18T06:23:05;-1.90;77.80
68943;DHT22;60852;52.190;4.422;2022-12-18T06:25:31;-1.92;77.69
68943;DHT22;60852;52.190;4.422;2022-12-18T06:27:56;-1.90;77.84
68943;DHT22;60852;52.190;4.422;2022-12-18T06:30:22;-1.86;77.58
68943;DHT22;60852;52.190;4.422;2022-12-18T06:32:48;-1.90;77.61
68943;DHT22;60852;52.190;4.422;2022-12-18T06:35:14;-1.89;77.60
68943;DHT22;60852;52.190;4.422;2022-12-18T06:37:39;-1.85;77.39
68943;DHT22;60852;52.190;4.422;2022-12-18T06:40:05;-1.86;77.33
68943;DHT22;60852;52.190;4.422;2022-12-18T06:42:31;-1.92;77.35
68943;DHT22;60852;52.190;4.422;2022-12-18T06:44:57;-1.93;77.56
68943;DHT22;60852;52.190;4.422;2022-12-18T06:47:22;-1.89;77.31
68943;DHT22;60852;52.190;4.422;2022-12-18T06:49:48;-1.87;77.25
68943;DHT22;60852;52.190;4.422;2022-12-18T06:52:13;-2.01;77.34
68943;DHT22;60852;52.190;4.422;2022-12-18T06:54:42;-1.99;77.43
68943;DHT22;60852;52.190;4.422;2022-12-18T06:57:07;-1.96;77.25
68943;DHT22;60852;52.190;4.422;2022-12-18T06:59:33;-1.94;77.07
68943;DHT22;60852;52.190;4.422;2022-12-18T07:01:59;-2.00;76.90
68943;DHT22;60852;52.190;4.422;2022-12-18T07:04:30;-2.00;77.02
68943;DHT22;60852;52.190;4.422;2022-12-18T07:06:56;-1.94;76.92
68943;DHT22;60852;52.190;4.422;2022-12-18T07:09:22;-2.00;76.84
68943;DHT22;60852;52.190;4.422;2022-12-18T07:11:48;-2.01;76.82
68943;DHT22;60852;52.190;4.422;2022-12-18T07:14:13;-2.06;76.89
68943;DHT22;60852;52.190;4.422;2022-12-18T07:16:39;-2.04;76.53
68943;DHT22;60852;52.190;4.422;2022-12-18T07:19:04;-2.06;76.27
68943;DHT22;60852;52.190;4.422;2022-12-18T07:21:30;-2.09;76.21
68943;DHT22;60852;52.190;4.422;2022-12-18T07:23:56;-2.07;76.03
68943;DHT22;60852;52.190;4.422;2022-12-18T07:26:22;-2.06;75.92
68943;DHT22;60852;52.190;4.422;2022-12-18T07:28:48;-2.10;75.74
68943;DHT22;60852;52.190;4.422;2022-12-18T07:31:17;-2.15;75.67
68943;DHT22;60852;52.190;4.422;2022-12-18T07:33:45;-2.17;75.52
68943;DHT22;60852;52.190;4.422;2022-12-18T07:36:10;-2.19;75.38
68943;DHT22;60852;52.190;4.422;2022-12-18T07:38:37;-2.19;75.46
68943;DHT22;60852;52.190;4.422;2022-12-18T07:41:05;-2.19;75.32
68943;DHT22;60852;52.190;4.422;2022-12-18T07:43:31;-2.20;75.56
68943;DHT22;60852;52.190;4.422;2022-12-18T07:45:56;-2.13;75.25
68943;DHT22;60852;52.190;4.422;2022-12-18T07:48:22;-2.09;74.76
68943;DHT22;60852;52.190;4.422;2022-12-18T07:50:47;-2.09;74.67
68943;DHT22;60852;52.190;4.422;2022-12-18T07:53:13;-2.06;74.55
68943;DHT22;60852;52.190;4.422;2022-12-18T07:55:40;-2.03;74.35
68943;DHT22;60852;52.190;4.422;2022-12-18T07:58:07;-2.04;74.51
68943;DHT22;60852;52.190;4.422;2022-12-18T08:00:33;-2.03;74.51
68943;DHT22;60852;52.190;4.422;2022-12-18T08:02:59;-1.97;74.50
68943;DHT22;60852;52.190;4.422;2022-12-18T08:05:24;-1.96;74.42
68943;DHT22;60852;52.190;4.422;2022-12-18T08:07:50;-1.86;74.16
68943;DHT22;60852;52.190;4.422;2022-12-18T08:10:16;-1.90;73.77
68943;DHT22;60852;52.190;4.422;2022-12-18T08:12:41;-1.89;73.61
68943;DHT22;60852;52.190;4.422;2022-12-18T08:15:08;-1.92;73.82
68943;DHT22;60852;52.190;4.422;2022-12-18T08:17:34;-1.92;73.86
68943;DHT22;60852;52.190;4.422;2022-12-18T08:19:59;-1.94;73.93
68943;DHT22;60852;52.190;4.422;2022-12-18T08:22:25;-1.92;73.90
68943;DHT22;60852;52.190;4.422;2022-12-18T08:24:51;-2.00;73.76
68943;DHT22;60852;52.190;4.422;2022-12-18T08:27:16;-2.04;73.93
68943;DHT22;60852;52.190;4.422;2022-12-18T08:29:42;-2.01;74.11
68943;DHT22;60852;52.190;4.422;2022-12-18T08:32:07;-1.96;74.02
68943;DHT22;60852;52.190;4.422;2022-12-18T08:34:33;-1.90;73.89
68943;DHT22;60852;52.190;4.422;2022-12-18T08:36:58;-1.92;73.61
68943;DHT22;60852;52.190;4.422;2022-12-18T08:39:23;-1.86;73.84
68943;DHT22;60852;52.190;4.422;2022-12-18T08:41:49;-1.75;73.91
68943;DHT22;60852;52.190;4.422;2022-12-18T08:44:33;-1.73;73.63
68943;DHT22;60852;52.190;4.422;2022-12-18T08:47:06;-1.63;73.63
68943;DHT22;60852;52.190;4.422;2022-12-18T08:49:32;-1.51;73.34
68943;DHT22;60852;52.190;4.422;2022-12-18T08:51:58;-1.45;72.95
68943;DHT22;60852;52.190;4.422;2022-12-18T08:54:24;-1.49;72.85
68943;DHT22;60852;52.190;4.422;2022-12-18T08:56:50;-1.54;72.71
68943;DHT22;60852;52.190;4.422;2022-12-18T08:59:16;-1.54;72.76
68943;DHT22;60852;52.190;4.422;2022-12-18T09:01:42;-1.49;72.81
68943;DHT22;60852;52.190;4.422;2022-12-18T09:04:09;-1.51;72.79
68943;DHT22;60852;52.190;4.422;2022-12-18T09:06:35;-1.51;72.54
68943;DHT22;60852;52.190;4.422;2022-12-18T09:09:01;-1.49;72.79
68943;DHT22;60852;52.190;4.422;2022-12-18T09:11:28;-1.44;72.90
68943;DHT22;60852;52.190;4.422;2022-12-18T09:13:55;-1.51;72.65
68943;DHT22;60852;52.190;4.422;2022-12-18T09:16:22;-1.55;72.72
68943;DHT22;60852;52.190;4.422;2022-12-18T09:18:48;-1.58;72.94
68943;DHT22;60852;52.190;4.422;2022-12-18T09:21:22;-1.52;73.24
68943;DHT22;60852;52.190;4.422;2022-12-18T09:23:52;-1.41;73.28
68943;DHT22;60852;52.190;4.422;2022-12-18T09:26:19;-1.42;72.74
68943;DHT22;60852;52.190;4.422;2022-12-18T09:28:44;-1.42;73.01
68943;DHT22;60852;52.190;4.422;2022-12-18T09:31:12;-1.35;72.76
68943;DHT22;60852;52.190;4.422;2022-12-18T09:33:41;-1.38;72.59
68943;DHT22;60852;52.190;4.422;2022-12-18T09:36:09;-1.44;72.79
68943;DHT22;60852;52.190;4.422;2022-12-18T09:38:36;-1.40;72.69
68943;DHT22;60852;52.190;4.422;2022-12-18T09:41:14;-1.44;72.72
68943;DHT22;60852;52.190;4.422;2022-12-18T09:43:47;-1.52;73.02
68943;DHT22;60852;52.190;4.422;2022-12-18T09:46:23;-1.58;73.13
68943;DHT22;60852;52.190;4.422;2022-12-18T09:48:54;-1.49;73.38
68943;DHT22;60852;52.190;4.422;2022-12-18T09:51:30;-1.48;73.22
68943;DHT22;60852;52.190;4.422;2022-12-18T09:54:06;-1.51;73.26
68943;DHT22;60852;52.190;4.422;2022-12-18T09:56:38;-1.37;73.40
68943;DHT22;60852;52.190;4.422;2022-12-18T09:59:05;-1.35;73.33
68943;DHT22;60852;52.190;4.422;2022-12-18T10:01:32;-1.30;73.36
68943;DHT22;60852;52.190;4.422;2022-12-18T10:03:59;-1.24;73.05
68943;DHT22;60852;52.190;4.422;2022-12-18T10:06:42;-1.15;72.81
68943;DHT22;60852;52.190;4.422;2022-12-18T10:09:37;-1.10;72.42
68943;DHT22;60852;52.190;4.422;2022-12-18T10:12:32;-1.15;72.48
68943;DHT22;60852;52.190;4.422;2022-12-18T10:15:30;-1.11;72.50
68943;DHT22;60852;52.190;4.422;2022-12-18T10:18:15;-1.08;72.80
68943;DHT22;60852;52.190;4.422;2022-12-18T10:21:12;-0.96;72.72
68943;DHT22;60852;52.190;4.422;2022-12-18T10:26:18;-1.14;72.12
68943;DHT22;60852;52.190;4.422;2022-12-18T10:28:44;-1.11;72.50
68943;DHT22;60852;52.190;4.422;2022-12-18T10:31:22;-1.05;72.66
68943;DHT22;60852;52.190;4.422;2022-12-18T10:33:47;-1.03;72.86
68943;DHT22;60852;52.190;4.422;2022-12-18T10:36:14;-0.86;72.61
68943;DHT22;60852;52.190;4.422;2022-12-18T10:38:40;-0.87;72.23
68943;DHT22;60852;52.190;4.422;2022-12-18T10:41:26;-0.80;72.21
68943;DHT22;60852;52.190;4.422;2022-12-18T10:46:36;-0.68;72.14
68943;DHT22;60852;52.190;4.422;2022-12-18T10:49:02;-0.65;71.99
68943;DHT22;60852;52.190;4.422;2022-12-18T10:51:31;-0.56;71.91
68943;DHT22;60852;52.190;4.422;2022-12-18T10:56:29;-0.46;71.71
68943;DHT22;60852;52.190;4.422;2022-12-18T10:59:10;-0.45;71.60
68943;DHT22;60852;52.190;4.422;2022-12-18T11:01:52;-0.33;71.24
68943;DHT22;60852;52.190;4.422;2022-12-18T11:04:24;-0.28;70.99
68943;DHT22;60852;52.190;4.422;2022-12-18T11:07:00;-0.18;70.83
68943;DHT22;60852;52.190;4.422;2022-12-18T11:09:34;-0.23;70.75
68943;DHT22;60852;52.190;4.422;2022-12-18T11:12:21;-0.19;70.41
68943;DHT22;60852;52.190;4.422;2022-12-18T11:14:53;-0.29;70.42
68943;DHT22;60852;52.190;4.422;2022-12-18T11:17:34;-0.33;70.89
68943;DHT22;60852;52.190;4.422;2022-12-18T11:20:03;-0.31;71.19
68943;DHT22;60852;52.190;4.422;2022-12-18T11:22:32;-0.26;71.33
68943;DHT22;60852;52.190;4.422;2022-12-18T11:25:05;-0.25;71.28
68943;DHT22;60852;52.190;4.422;2022-12-18T11:27:31;-0.22;71.06
68943;DHT22;60852;52.190;4.422;2022-12-18T11:30:13;-0.26;71.38
68943;DHT22;60852;52.190;4.422;2022-12-18T11:32:49;-0.33;71.10
68943;DHT22;60852;52.190;4.422;2022-12-18T11:38:06;-0.42;72.03
68943;DHT22;60852;52.190;4.422;2022-12-18T11:40:36;-0.42;72.20
68943;DHT22;60852;52.190;4.422;2022-12-18T11:43:26;-0.35;72.63
68943;DHT22;60852;52.190;4.422;2022-12-18T11:46:32;-0.29;72.24
68943;DHT22;60852;52.190;4.422;2022-12-18T11:49:09;-0.28;71.83
68943;DHT22;60852;52.190;4.422;2022-12-18T11:52:04;-0.29;72.23
68943;DHT22;60852;52.190;4.422;2022-12-18T11:54:33;-0.28;72.00
68943;DHT22;60852;52.190;4.422;2022-12-18T11:59:53;-0.22;72.22
68943;DHT22;60852;52.190;4.422;2022-12-18T12:05:05;-0.26;72.22
68943;DHT22;60852;52.190;4.422;2022-12-18T12:07:51;-0.17;72.26
68943;DHT22;60852;52.190;4.422;2022-12-18T12:10:46;-0.11;72.18
68943;DHT22;60852;52.190;4.422;2022-12-18T12:16:37;-0.01;71.64
68943;DHT22;60852;52.190;4.422;2022-12-18T12:19:24;0.07;72.16
68943;DHT22;60852;52.190;4.422;2022-12-18T12:22:05;0.09;71.92
68943;DHT22;60852;52.190;4.422;2022-12-18T12:27:59;0.11;71.84
68943;DHT22;60852;52.190;4.422;2022-12-18T12:33:30;0.11;71.72
68943;DHT22;60852;52.190;4.422;2022-12-18T12:38:54;0.13;72.33
68943;DHT22;60852;52.190;4.422;2022-12-18T12:41:24;0.06;72.56
68943;DHT22;60852;52.190;4.422;2022-12-18T12:44:21;0.05;73.07
68943;DHT22;60852;52.190;4.422;2022-12-18T12:46:50;0.11;73.22
68943;DHT22;60852;52.190;4.422;2022-12-18T12:49:20;0.16;72.84
68943;DHT22;60852;52.190;4.422;2022-12-18T12:51:58;0.23;72.71
68943;DHT22;60852;52.190;4.422;2022-12-18T12:54:27;0.14;72.85
68943;DHT22;60852;52.190;4.422;2022-12-18T12:57:16;0.13;73.33
68943;DHT22;60852;52.190;4.422;2022-12-18T13:00:16;0.11;72.99
68943;DHT22;60852;52.190;4.422;2022-12-18T13:08:28;0.05;73.30
68943;DHT22;60852;52.190;4.422;2022-12-18T13:10:57;-0.02;73.35
68943;DHT22;60852;52.190;4.422;2022-12-18T13:13:55;-0.22;73.90
68943;DHT22;60852;52.190;4.422;2022-12-18T13:16:24;-0.17;74.27
68943;DHT22;60852;52.190;4.422;2022-12-18T13:18:55;-0.14;74.36
68943;DHT22;60852;52.190;4.422;2022-12-18T13:21:33;-0.08;74.32
68943;DHT22;60852;52.190;4.422;2022-12-18T13:24:26;-0.07;74.42
68943;DHT22;60852;52.190;4.422;2022-12-18T13:26:52;-0.05;74.24
68943;DHT22;60852;52.190;4.422;2022-12-18T13:29:41;-0.12;74.35
68943;DHT22;60852;52.190;4.422;2022-12-18T13:32:20;-0.11;74.50
68943;DHT22;60852;52.190;4.422;2022-12-18T13:34:46;-0.15;74.27
68943;DHT22;60852;52.190;4.422;2022-12-18T13:37:41;-0.15;74.45
68943;DHT22;60852;52.190;4.422;2022-12-18T13:45:50;0.00;74.30
68943;DHT22;60852;52.190;4.422;2022-12-18T13:48:26;0.06;74.27
68943;DHT22;60852;52.190;4.422;2022-12-18T13:50:59;0.03;74.17
68943;DHT22;60852;52.190;4.422;2022-12-18T13:53:49;-0.01;74.15
68943;DHT22;60852;52.190;4.422;2022-12-18T13:56:32;0.09;74.13
68943;DHT22;60852;52.190;4.422;2022-12-18T14:01:55;0.07;73.98
68943;DHT22;60852;52.190;4.422;2022-12-18T14:04:29;0.11;74.00
68943;DHT22;60852;52.190;4.422;2022-12-18T14:07:01;0.10;73.46
68943;DHT22;60852;52.190;4.422;2022-12-18T14:09:31;0.20;73.74
68943;DHT22;60852;52.190;4.422;2022-12-18T14:12:00;0.21;73.82
68943;DHT22;60852;52.190;4.422;2022-12-18T14:14:47;0.27;73.78
68943;DHT22;60852;52.190;4.422;2022-12-18T14:17:15;0.21;73.85
68943;DHT22;60852;52.190;4.422;2022-12-18T14:19:46;0.29;73.58
68943;DHT22;60852;52.190;4.422;2022-12-18T14:22:21;0.29;73.49
68943;DHT22;60852;52.190;4.422;2022-12-18T14:27:45;0.30;73.28
68943;DHT22;60852;52.190;4.422;2022-12-18T14:30:32;0.30;73.12
68943;DHT22;60852;52.190;4.422;2022-12-18T14:33:20;0.34;73.11
68943;DHT22;60852;52.190;4.422;2022-12-18T14:35:59;0.26;73.28
68943;DHT22;60852;52.190;4.422;2022-12-18T14:41:11;0.29;73.40
68943;DHT22;60852;52.190;4.422;2022-12-18T14:43:40;0.31;73.51
68943;DHT22;60852;52.190;4.422;2022-12-18T14:46:27;0.36;73.29
68943;DHT22;60852;52.190;4.422;2022-12-18T14:48:53;0.30;73.47
68943;DHT22;60852;52.190;4.422;2022-12-18T14:51:22;0.29;73.62
68943;DHT22;60852;52.190;4.422;2022-12-18T14:54:01;0.36;73.63
68943;DHT22;60852;52.190;4.422;2022-12-18T14:56:30;0.24;73.60
68943;DHT22;60852;52.190;4.422;2022-12-18T14:59:00;0.21;73.96
68943;DHT22;60852;52.190;4.422;2022-12-18T15:01:39;0.38;73.57
68943;DHT22;60852;52.190;4.422;2022-12-18T15:04:33;0.36;73.50
68943;DHT22;60852;52.190;4.422;2022-12-18T15:07:17;0.33;73.38
68943;DHT22;60852;52.190;4.422;2022-12-18T15:10:00;0.40;73.49
68943;DHT22;60852;52.190;4.422;2022-12-18T15:12:42;0.33;73.28
68943;DHT22;60852;52.190;4.422;2022-12-18T15:20:46;0.29;73.64
68943;DHT22;60852;52.190;4.422;2022-12-18T15:23:45;0.31;73.86
68943;DHT22;60852;52.190;4.422;2022-12-18T15:26:14;0.36;73.98
68943;DHT22;60852;52.190;4.422;2022-12-18T15:34:02;0.34;74.27
68943;DHT22;60852;52.190;4.422;2022-12-18T15:36:30;0.40;74.27
68943;DHT22;60852;52.190;4.422;2022-12-18T15:38:57;0.36;74.11
68943;DHT22;60852;52.190;4.422;2022-12-18T15:41:23;0.41;74.20
68943;DHT22;60852;52.190;4.422;2022-12-18T15:43:51;0.37;74.31
68943;DHT22;60852;52.190;4.422;2022-12-18T15:46:19;0.40;74.41
68943;DHT22;60852;52.190;4.422;2022-12-18T15:48:50;0.50;74.16
68943;DHT22;60852;52.190;4.422;2022-12-18T15:51:35;0.51;73.93
68943;DHT22;60852;52.190;4.422;2022-12-18T15:54:04;0.47;74.04
68943;DHT22;60852;52.190;4.422;2022-12-18T15:56:30;0.47;74.03
68943;DHT22;60852;52.190;4.422;2022-12-18T15:59:19;0.44;74.20
68943;DHT22;60852;52.190;4.422;2022-12-18T16:01:51;0.47;74.41
68943;DHT22;60852;52.190;4.422;2022-12-18T16:04:20;0.44;74.53
68943;DHT22;60852;52.190;4.422;2022-12-18T16:06:46;0.53;74.63
68943;DHT22;60852;52.190;4.422;2022-12-18T16:09:12;0.65;74.50
68943;DHT22;60852;52.190;4.422;2022-12-18T16:11:41;0.64;74.19
68943;DHT22;60852;52.190;4.422;2022-12-18T16:14:20;0.57;74.32
68943;DHT22;60852;52.190;4.422;2022-12-18T16:16:50;0.54;74.35
68943;DHT22;60852;52.190;4.422;2022-12-18T16:19:16;0.60;74.49
68943;DHT22;60852;52.190;4.422;2022-12-18T16:21:43;0.67;74.41
68943;DHT22;60852;52.190;4.422;2022-12-18T16:24:15;0.67;74.50
68943;DHT22;60852;52.190;4.422;2022-12-18T16:26:41;0.64;74.38
68943;DHT22;60852;52.190;4.422;2022-12-18T16:29:07;0.60;74.44
68943;DHT22;60852;52.190;4.422;2022-12-18T16:31:33;0.57;74.58
68943;DHT22;60852;52.190;4.422;2022-12-18T16:37:00;0.64;74.53
68943;DHT22;60852;52.190;4.422;2022-12-18T16:39:27;0.71;74.63
68943;DHT22;60852;52.190;4.422;2022-12-18T16:41:53;0.79;74.62
68943;DHT22;60852;52.190;4.422;2022-12-18T16:44:19;0.89;74.22
68943;DHT22;60852;52.190;4.422;2022-12-18T16:46:46;0.89;73.93
68943;DHT22;60852;52.190;4.422;2022-12-18T16:49:17;0.93;73.90
68943;DHT22;60852;52.190;4.422;2022-12-18T16:51:43;0.91;73.77
68943;DHT22;60852;52.190;4.422;2022-12-18T16:54:10;0.96;73.75
68943;DHT22;60852;52.190;4.422;2022-12-18T16:56:36;1.02;73.74
68943;DHT22;60852;52.190;4.422;2022-12-18T16:59:03;1.00;73.62
68943;DHT22;60852;52.190;4.422;2022-12-18T17:01:30;1.05;73.65
68943;DHT22;60852;52.190;4.422;2022-12-18T17:04:01;1.06;73.56
68943;DHT22;60852;52.190;4.422;2022-12-18T17:06:30;1.09;73.20
68943;DHT22;60852;52.190;4.422;2022-12-18T17:08:56;1.10;73.26
68943;DHT22;60852;52.190;4.422;2022-12-18T17:11:23;1.19;73.13
68943;DHT22;60852;52.190;4.422;2022-12-18T17:13:49;1.20;73.03
68943;DHT22;60852;52.190;4.422;2022-12-18T17:16:14;1.28;73.04
68943;DHT22;60852;52.190;4.422;2022-12-18T17:18:42;1.26;72.97
68943;DHT22;60852;52.190;4.422;2022-12-18T17:21:09;1.29;73.00
68943;DHT22;60852;52.190;4.422;2022-12-18T17:23:35;1.29;72.76
68943;DHT22;60852;52.190;4.422;2022-12-18T17:26:03;1.33;72.68
68943;DHT22;60852;52.190;4.422;2022-12-18T17:28:31;1.33;72.66
68943;DHT22;60852;52.190;4.422;2022-12-18T17:30:57;1.39;72.65
68943;DHT22;60852;52.190;4.422;2022-12-18T17:33:23;1.42;72.29